Time;durP1;ratioP1;P1;durP2;ratioP2;P2;SDS_P1;SDS_P2;PMS_P1;PMS_P2;Temp;Humidity;BMP_temperature;BMP_pressure;BME280_temperature;BME280_humidity;BME280_pressure;Samples;Min_cycle;Max_cycle;Signal;HPM_P1;HPM_P2
2022/11/14 00:01:24;;;;;;;;;;;9.30;95.00;;;;;;5013832;28;1293;-72
2022/11/14 00:03:53;;;;;;;;;;;9.40;95.00;;;;;;5024614;28;1089;-73
2022/11/14 00:06:21;;;;;;;;;;;9.30;95.20;;;;;;5014536;28;1980;-73
2022/11/14 00:08:48;;;;;;;;;;;9.40;95.10;;;;;;5022393;28;1512;-73
2022/11/14 00:11:16;;;;;;;;;;;9.40;94.90;;;;;;5021246;28;1294;-73
2022/11/14 00:13:44;;;;;;;;;;;9.40;94.90;;;;;;5023661;28;1495;-72
2022/11/14 00:16:11;;;;;;;;;;;9.40;94.70;;;;;;5026455;28;1006;-71
2022/11/14 00:18:39;;;;;;;;;;;9.30;94.80;;;;;;5025207;28;1017;-71
2022/11/14 00:21:08;;;;;;;;;;;9.20;94.80;;;;;;5024252;28;1288;-71
2022/11/14 00:23:35;;;;;;;;;;;9.30;94.70;;;;;;5026718;28;1336;-71
2022/11/14 00:26:03;;;;;;;;;;;9.20;94.80;;;;;;5022050;28;1025;-71
2022/11/14 00:28:31;;;;;;;;;;;9.20;95.20;;;;;;5021676;28;1910;-71
2022/11/14 00:30:59;;;;;;;;;;;9.20;94.90;;;;;;5024766;28;1278;-71
2022/11/14 00:33:26;;;;;;;;;;;9.20;95.20;;;;;;5026862;28;1388;-71
2022/11/14 00:35:54;;;;;;;;;;;9.20;95.00;;;;;;5027533;28;1056;-71
2022/11/14 00:38:23;;;;;;;;;;;9.10;95.10;;;;;;5016518;28;1148;-71
2022/11/14 00:40:51;;;;;;;;;;;9.00;95.00;;;;;;5025429;28;1074;-71
2022/11/14 00:43:19;;;;;;;;;;;9.00;95.10;;;;;;5020432;28;1495;-71
2022/11/14 00:45:46;;;;;;;;;;;9.00;94.80;;;;;;5021750;28;1144;-71
2022/11/14 00:48:14;;;;;;;;;;;9.00;95.10;;;;;;5019884;28;1910;-71
2022/11/14 00:50:42;;;;;;;;;;;9.20;94.70;;;;;;5024729;28;1002;-71
2022/11/14 00:53:10;;;;;;;;;;;9.10;94.50;;;;;;5021670;28;1228;-70
2022/11/14 00:55:39;;;;;;;;;;;8.90;94.80;;;;;;5021701;28;1231;-70
2022/11/14 00:58:06;;;;;;;;;;;9.00;94.80;;;;;;5024141;28;1081;-70
2022/11/14 01:00:34;;;;;;;;;;;9.00;94.80;;;;;;5024862;28;962;-71
2022/11/14 01:03:02;;;;;;;;;;;8.80;94.80;;;;;;5023902;28;1265;-70
2022/11/14 01:05:29;;;;;;;;;;;8.80;94.80;;;;;;5021898;28;1282;-70
2022/11/14 01:07:57;;;;;;;;;;;8.60;95.00;;;;;;5026981;28;1989;-71
2022/11/14 01:10:24;;;;;;;;;;;8.70;95.00;;;;;;5022750;28;1097;-71
2022/11/14 01:12:53;;;;;;;;;;;8.80;94.70;;;;;;5020198;28;1260;-72
2022/11/14 01:15:21;;;;;;;;;;;8.80;94.70;;;;;;5027011;28;1101;-72
2022/11/14 01:17:49;;;;;;;;;;;8.90;94.60;;;;;;5023676;28;1105;-73
2022/11/14 01:20:16;;;;;;;;;;;9.00;94.60;;;;;;5019123;28;1109;-72
2022/11/14 01:22:44;;;;;;;;;;;8.70;94.80;;;;;;5026964;28;1363;-71
2022/11/14 01:25:12;;;;;;;;;;;8.80;94.70;;;;;;5025022;28;1005;-71
2022/11/14 01:27:39;;;;;;;;;;;8.80;94.80;;;;;;5035856;28;1987;-71
2022/11/14 01:30:09;;;;;;;;;;;8.90;94.70;;;;;;5025639;28;1249;-72
2022/11/14 01:32:36;;;;;;;;;;;8.90;94.90;;;;;;5028876;28;1390;-72
2022/11/14 01:35:04;;;;;;;;;;;8.70;95.00;;;;;;5031349;28;1262;-73
2022/11/14 01:37:32;;;;;;;;;;;8.80;94.90;;;;;;5032900;28;1038;-72
2022/11/14 01:39:59;;;;;;;;;;;8.70;95.30;;;;;;5030652;28;1501;-71
2022/11/14 01:42:27;;;;;;;;;;;8.70;95.10;;;;;;5025728;28;1754;-71
2022/11/14 01:44:54;;;;;;;;;;;8.60;95.10;;;;;;5029595;28;1198;-72
2022/11/14 01:47:25;;;;;;;;;;;8.70;95.10;;;;;;5025402;28;1983;-71
2022/11/14 01:49:54;;;;;;;;;;;8.60;95.20;;;;;;5026429;28;1250;-72
2022/11/14 01:52:23;;;;;;;;;;;8.50;95.30;;;;;;5023761;28;1542;-73
2022/11/14 01:54:52;;;;;;;;;;;8.50;95.40;;;;;;5029535;28;1001;-72
2022/11/14 01:57:22;;;;;;;;;;;8.60;95.20;;;;;;5030958;28;1149;-73
2022/11/14 01:59:51;;;;;;;;;;;8.70;95.20;;;;;;5026460;28;1577;-71
2022/11/14 02:02:20;;;;;;;;;;;8.50;95.10;;;;;;5023202;28;1291;-71
2022/11/14 02:04:51;;;;;;;;;;;8.60;95.30;;;;;;5028058;28;1096;-72
2022/11/14 02:07:19;;;;;;;;;;;8.60;95.10;;;;;;5019018;28;1977;-71
2022/11/14 02:09:48;;;;;;;;;;;8.60;95.10;;;;;;5018935;28;997;-71
2022/11/14 02:12:17;;;;;;;;;;;8.50;95.30;;;;;;5024360;28;1287;-73
2022/11/14 02:17:57;;;;;;;;;;;8.60;95.30;;;;;;5724212;22;1984;-88
2022/11/14 02:20:31;;;;;;;;;;;8.70;95.10;;;;;;5013988;28;1549;-89
2022/11/14 02:22:59;;;;;;;;;;;8.50;95.10;;;;;;5012519;28;1366;-88
2022/11/14 02:25:27;;;;;;;;;;;8.70;94.60;;;;;;5001677;28;1558;-86
2022/11/14 02:27:56;;;;;;;;;;;8.60;94.30;;;;;;5010649;28;1970;-89
2022/11/14 02:30:24;;;;;;;;;;;8.50;94.90;;;;;;5018092;28;1402;-88
2022/11/14 02:32:52;;;;;;;;;;;8.90;94.50;;;;;;5003973;28;1040;-87
2022/11/14 02:35:41;;;;;;;;;;;8.70;94.20;;;;;;5015012;28;1225;-90
2022/11/14 02:38:09;;;;;;;;;;;8.60;94.90;;;;;;5018745;28;1001;-89
2022/11/14 02:40:37;;;;;;;;;;;8.90;94.80;;;;;;5013945;28;1487;-90
2022/11/14 02:43:05;;;;;;;;;;;8.90;94.30;;;;;;5015876;28;1717;-88
2022/11/14 02:45:33;;;;;;;;;;;8.50;95.10;;;;;;4999522;28;1686;-89
2022/11/14 02:48:00;;;;;;;;;;;8.50;94.70;;;;;;4999020;28;2009;-89
2022/11/14 02:50:28;;;;;;;;;;;8.80;94.80;;;;;;4998457;28;1379;-91
2022/11/14 02:52:57;;;;;;;;;;;8.60;94.40;;;;;;5012824;28;1567;-90
2022/11/14 02:55:25;;;;;;;;;;;8.50;94.80;;;;;;5010302;28;1682;-89
2022/11/14 02:57:53;;;;;;;;;;;8.60;94.70;;;;;;5002050;28;1670;-89
2022/11/14 03:00:21;;;;;;;;;;;8.60;94.60;;;;;;5002291;28;1503;-90
2022/11/14 03:02:48;;;;;;;;;;;8.50;94.70;;;;;;5002183;28;1049;-87
2022/11/14 03:05:16;;;;;;;;;;;8.70;94.70;;;;;;5003077;28;1085;-88
2022/11/14 03:07:44;;;;;;;;;;;8.70;94.40;;;;;;5005553;28;1977;-89
2022/11/14 03:10:13;;;;;;;;;;;8.60;94.40;;;;;;5001631;28;1700;-87
2022/11/14 03:12:41;;;;;;;;;;;8.50;95.10;;;;;;5001948;28;1551;-90
2022/11/14 03:15:09;;;;;;;;;;;8.50;94.70;;;;;;5008969;28;1061;-88
2022/11/14 03:17:37;;;;;;;;;;;8.70;95.00;;;;;;5015398;28;1701;-86
2022/11/14 03:20:06;;;;;;;;;;;8.50;94.30;;;;;;5007991;28;1264;-88
2022/11/14 03:22:33;;;;;;;;;;;8.60;95.10;;;;;;5014730;28;1414;-89
2022/11/14 03:25:01;;;;;;;;;;;8.30;94.80;;;;;;5016979;28;1591;-90
2022/11/14 03:27:30;;;;;;;;;;;8.60;94.80;;;;;;5001743;28;1013;-88
2022/11/14 03:29:58;;;;;;;;;;;8.70;94.90;;;;;;4998897;28;1902;-89
2022/11/14 03:32:26;;;;;;;;;;;8.70;94.60;;;;;;5016293;28;1520;-88
2022/11/14 03:34:57;;;;;;;;;;;9.00;94.10;;;;;;5009095;28;1602;-90
2022/11/14 03:37:28;;;;;;;;;;;8.50;95.10;;;;;;5001693;28;1670;-88
2022/11/14 03:39:55;;;;;;;;;;;8.40;94.70;;;;;;5001938;28;1547;-89
2022/11/14 03:42:25;;;;;;;;;;;8.10;94.80;;;;;;5001319;28;1557;-88
2022/11/14 03:44:54;;;;;;;;;;;8.60;94.90;;;;;;5000914;28;1561;-90
2022/11/14 03:47:22;;;;;;;;;;;8.50;95.10;;;;;;5000581;28;1459;-86
2022/11/14 03:49:49;;;;;;;;;;;8.50;94.90;;;;;;5012006;28;1973;-89
2022/11/14 03:52:18;;;;;;;;;;;8.40;94.10;;;;;;5012888;28;1539;-90
2022/11/14 03:54:45;;;;;;;;;;;8.80;94.10;;;;;;5016667;28;1555;-89
2022/11/14 03:57:13;;;;;;;;;;;8.50;94.50;;;;;;5021566;28;1526;-90
2022/11/14 03:59:41;;;;;;;;;;;8.80;94.60;;;;;;5020956;28;1261;-90
2022/11/14 04:02:13;;;;;;;;;;;8.90;94.50;;;;;;5013198;28;1519;-88
2022/11/14 04:04:41;;;;;;;;;;;8.60;95.00;;;;;;5008581;28;1712;-88
2022/11/14 04:07:08;;;;;;;;;;;8.60;94.50;;;;;;5022352;28;1586;-91
2022/11/14 04:09:36;;;;;;;;;;;8.50;94.40;;;;;;5022026;28;1991;-90
2022/11/14 04:12:07;;;;;;;;;;;8.40;94.60;;;;;;5004386;28;1075;-91
2022/11/14 04:14:42;;;;;;;;;;;8.40;94.70;;;;;;5003190;28;993;-87
2022/11/14 04:17:10;;;;;;;;;;;8.50;94.30;;;;;;5002508;28;1000;-89
2022/11/14 04:19:39;;;;;;;;;;;8.60;94.50;;;;;;5001292;28;1638;-89
2022/11/14 04:22:07;;;;;;;;;;;8.50;94.80;;;;;;5016424;28;985;-87
2022/11/14 04:24:34;;;;;;;;;;;8.70;94.60;;;;;;5021008;28;985;-87
2022/11/14 04:27:02;;;;;;;;;;;8.30;94.40;;;;;;5020019;28;1437;-88
2022/11/14 04:29:30;;;;;;;;;;;8.30;94.20;;;;;;5019865;28;1911;-88
2022/11/14 04:31:58;;;;;;;;;;;8.40;94.50;;;;;;5005592;28;1679;-89
2022/11/14 04:34:26;;;;;;;;;;;8.50;94.50;;;;;;5004127;28;1650;-89
2022/11/14 04:36:55;;;;;;;;;;;8.60;94.40;;;;;;5034237;28;1065;-89
2022/11/14 04:39:23;;;;;;;;;;;8.40;94.80;;;;;;5021694;28;1386;-89
2022/11/14 04:41:51;;;;;;;;;;;8.40;94.60;;;;;;5022323;28;1670;-89
2022/11/14 04:44:18;;;;;;;;;;;8.40;94.70;;;;;;5017179;28;1640;-88
2022/11/14 04:46:46;;;;;;;;;;;8.30;94.60;;;;;;5015013;28;1584;-89
2022/11/14 04:49:14;;;;;;;;;;;8.30;94.60;;;;;;5008741;28;1973;-90
2022/11/14 04:51:42;;;;;;;;;;;8.50;94.30;;;;;;5006205;28;1532;-89
2022/11/14 04:54:11;;;;;;;;;;;8.40;95.00;;;;;;5004264;28;1724;-89
2022/11/14 04:56:43;;;;;;;;;;;8.40;94.90;;;;;;5003687;28;954;-89
2022/11/14 04:59:11;;;;;;;;;;;8.30;95.10;;;;;;5002707;28;1540;-88
2022/11/14 05:01:46;;;;;;;;;;;8.50;94.50;;;;;;5003697;28;1591;-88
2022/11/14 05:04:14;;;;;;;;;;;8.40;94.50;;;;;;5002787;28;1686;-88
2022/11/14 05:06:42;;;;;;;;;;;8.30;94.60;;;;;;5002157;28;1025;-89
2022/11/14 05:09:09;;;;;;;;;;;8.40;94.60;;;;;;5006334;28;1887;-90
2022/11/14 05:11:38;;;;;;;;;;;8.40;94.50;;;;;;5015413;28;1558;-90
2022/11/14 05:14:06;;;;;;;;;;;8.40;94.80;;;;;;5016346;28;1770;-87
2022/11/14 05:16:34;;;;;;;;;;;8.50;94.70;;;;;;5013791;28;1026;-87
2022/11/14 05:19:02;;;;;;;;;;;8.50;94.60;;;;;;5016171;28;1591;-86
2022/11/14 05:21:30;;;;;;;;;;;8.20;94.50;;;;;;5018962;28;1636;-85
2022/11/14 05:24:05;;;;;;;;;;;8.10;94.80;;;;;;5005818;28;1670;-87
2022/11/14 05:26:33;;;;;;;;;;;8.10;95.20;;;;;;5018200;28;1429;-89
2022/11/14 05:29:03;;;;;;;;;;;8.10;94.80;;;;;;5018957;28;1964;-88
2022/11/14 05:31:30;;;;;;;;;;;8.20;95.40;;;;;;5004926;28;1419;-88
2022/11/14 05:33:58;;;;;;;;;;;8.20;95.00;;;;;;5004889;28;1469;-88
2022/11/14 05:36:26;;;;;;;;;;;8.50;94.80;;;;;;5005158;28;1266;-87
2022/11/14 05:38:54;;;;;;;;;;;8.20;93.80;;;;;;5017751;28;1291;-86
2022/11/14 05:41:22;;;;;;;;;;;8.30;94.90;;;;;;5031375;28;1144;-86
2022/11/14 05:43:49;;;;;;;;;;;8.30;94.40;;;;;;5008670;28;1088;-88
2022/11/14 05:46:19;;;;;;;;;;;8.30;94.60;;;;;;5009991;28;1104;-88
2022/11/14 05:48:50;;;;;;;;;;;8.30;94.90;;;;;;5001231;28;1555;-86
2022/11/14 05:51:17;;;;;;;;;;;8.30;95.00;;;;;;5014598;28;1975;-88
2022/11/14 05:53:45;;;;;;;;;;;8.20;94.60;;;;;;5012539;28;1613;-87
2022/11/14 05:56:13;;;;;;;;;;;8.10;94.80;;;;;;5003601;28;1667;-88
2022/11/14 05:58:43;;;;;;;;;;;8.10;95.00;;;;;;5003565;28;1284;-88
2022/11/14 06:01:12;;;;;;;;;;;8.20;95.60;;;;;;5008513;28;1516;-86
2022/11/14 06:03:48;;;;;;;;;;;8.20;95.20;;;;;;5002583;28;1665;-89
2022/11/14 06:06:16;;;;;;;;;;;8.10;95.80;;;;;;5002367;28;1041;-89
2022/11/14 06:08:44;;;;;;;;;;;8.10;95.40;;;;;;5015481;28;1544;-90
2022/11/14 06:11:13;;;;;;;;;;;8.40;95.60;;;;;;5003808;28;1895;-89
2022/11/14 06:13:51;;;;;;;;;;;8.00;95.60;;;;;;5003191;28;1605;-91
2022/11/14 06:16:22;;;;;;;;;;;8.00;95.00;;;;;;5004682;28;1356;-88
2022/11/14 06:18:53;;;;;;;;;;;8.10;95.10;;;;;;5004773;28;1563;-90
2022/11/14 06:21:23;;;;;;;;;;;8.30;95.20;;;;;;5004586;28;1014;-89
2022/11/14 06:23:51;;;;;;;;;;;8.60;95.00;;;;;;5003324;28;1884;-89
2022/11/14 06:26:20;;;;;;;;;;;8.00;95.10;;;;;;5002009;28;1013;-88
2022/11/14 06:28:48;;;;;;;;;;;8.20;95.20;;;;;;5003712;28;1681;-88
2022/11/14 06:31:16;;;;;;;;;;;8.20;95.90;;;;;;5016554;28;1902;-90
2022/11/14 06:33:45;;;;;;;;;;;8.30;94.60;;;;;;5011642;28;1045;-90
2022/11/14 06:36:15;;;;;;;;;;;8.50;95.70;;;;;;5007658;28;1587;-90
2022/11/14 06:38:43;;;;;;;;;;;8.80;95.80;;;;;;5004749;28;1213;-88
2022/11/14 06:41:14;;;;;;;;;;;8.60;94.70;;;;;;5007682;28;1579;-86
2022/11/14 06:43:43;;;;;;;;;;;7.90;93.90;;;;;;5026140;28;1053;-84
2022/11/14 06:46:12;;;;;;;;;;;8.20;94.70;;;;;;5013648;28;962;-86
2022/11/14 06:48:40;;;;;;;;;;;8.10;94.60;;;;;;5010573;28;1371;-86
2022/11/14 06:51:07;;;;;;;;;;;8.50;95.00;;;;;;5020125;28;1988;-85
2022/11/14 06:53:36;;;;;;;;;;;8.30;94.40;;;;;;5014171;28;1508;-86
2022/11/14 06:56:05;;;;;;;;;;;8.30;94.60;;;;;;5007595;28;1045;-87
2022/11/14 06:58:34;;;;;;;;;;;8.30;94.70;;;;;;5000022;28;1429;-87
2022/11/14 07:01:04;;;;;;;;;;;8.40;94.60;;;;;;5000654;28;1577;-88
2022/11/14 07:03:32;;;;;;;;;;;8.40;95.10;;;;;;5007426;28;1786;-85
2022/11/14 07:06:00;;;;;;;;;;;8.30;94.80;;;;;;5012331;28;1723;-84
2022/11/14 07:08:27;;;;;;;;;;;8.50;95.10;;;;;;5006260;28;1643;-84
2022/11/14 07:11:02;;;;;;;;;;;8.30;95.20;;;;;;5012175;28;1902;-85
2022/11/14 07:13:31;;;;;;;;;;;8.30;95.40;;;;;;5000251;28;934;-85
2022/11/14 07:15:59;;;;;;;;;;;8.40;95.10;;;;;;5000631;28;1472;-86
2022/11/14 07:18:26;;;;;;;;;;;8.20;94.60;;;;;;4999339;28;1519;-85
2022/11/14 07:20:58;;;;;;;;;;;8.30;94.90;;;;;;4998705;28;966;-87
2022/11/14 07:23:25;;;;;;;;;;;8.20;95.40;;;;;;5008036;28;1073;-86
2022/11/14 07:25:53;;;;;;;;;;;8.00;94.60;;;;;;5001682;28;1398;-85
2022/11/14 07:28:22;;;;;;;;;;;8.10;95.10;;;;;;5002340;28;1289;-86
2022/11/14 07:30:50;;;;;;;;;;;8.10;95.10;;;;;;5012010;28;1960;-87
2022/11/14 07:33:18;;;;;;;;;;;8.20;94.90;;;;;;5012827;28;1564;-87
2022/11/14 07:35:45;;;;;;;;;;;8.30;94.80;;;;;;5008134;28;1696;-86
2022/11/14 07:38:13;;;;;;;;;;;8.00;94.90;;;;;;5013750;28;1467;-85
2022/11/14 07:40:41;;;;;;;;;;;8.10;94.90;;;;;;5002509;28;1389;-86
2022/11/14 07:43:09;;;;;;;;;;;8.10;94.50;;;;;;5003323;28;1544;-85
2022/11/14 07:45:38;;;;;;;;;;;8.40;94.70;;;;;;5014396;28;1559;-85
2022/11/14 07:48:05;;;;;;;;;;;8.10;95.20;;;;;;5022119;28;1001;-85
2022/11/14 07:50:33;;;;;;;;;;;8.20;94.70;;;;;;5010826;28;1981;-84
2022/11/14 07:53:01;;;;;;;;;;;8.00;94.70;;;;;;5021145;28;1715;-87
2022/11/14 07:55:29;;;;;;;;;;;8.00;94.80;;;;;;5015072;28;1083;-87
2022/11/14 07:57:59;;;;;;;;;;;8.00;94.80;;;;;;5018428;28;1299;-85
2022/11/14 08:00:26;;;;;;;;;;;8.00;95.10;;;;;;5023129;28;1556;-87
2022/11/14 08:02:56;;;;;;;;;;;8.10;94.60;;;;;;5003176;28;1036;-87
2022/11/14 08:05:26;;;;;;;;;;;8.00;95.10;;;;;;5002412;28;1732;-87
2022/11/14 08:07:54;;;;;;;;;;;8.20;94.80;;;;;;5001304;28;1426;-88
2022/11/14 08:10:22;;;;;;;;;;;8.20;94.70;;;;;;5008601;28;1985;-86
2022/11/14 08:12:57;;;;;;;;;;;8.10;94.60;;;;;;5012038;28;1727;-87
2022/11/14 08:15:47;;;;;;;;;;;8.10;95.10;;;;;;5014321;28;1639;-88
2022/11/14 08:18:20;;;;;;;;;;;8.00;94.40;;;;;;5006267;28;1465;-86
2022/11/14 08:20:48;;;;;;;;;;;8.00;95.00;;;;;;5008612;28;1533;-87
2022/11/14 08:23:22;;;;;;;;;;;8.00;94.30;;;;;;5009706;28;1641;-87
2022/11/14 08:25:53;;;;;;;;;;;7.70;94.50;;;;;;5014952;28;950;-87
2022/11/14 08:28:20;;;;;;;;;;;8.10;94.20;;;;;;5008224;28;1283;-87
2022/11/14 08:30:48;;;;;;;;;;;8.20;94.40;;;;;;5009510;28;1993;-86
2022/11/14 08:33:16;;;;;;;;;;;8.20;94.40;;;;;;5007667;28;973;-86
2022/11/14 08:35:45;;;;;;;;;;;8.00;93.80;;;;;;5009252;28;1002;-86
2022/11/14 08:38:13;;;;;;;;;;;8.00;94.80;;;;;;5008065;28;1359;-85
2022/11/14 08:40:46;;;;;;;;;;;8.00;94.40;;;;;;5009174;28;1012;-87
2022/11/14 08:43:14;;;;;;;;;;;8.20;94.60;;;;;;5009555;28;1282;-88
2022/11/14 08:45:45;;;;;;;;;;;7.80;94.60;;;;;;5007413;28;1615;-88
2022/11/14 08:48:12;;;;;;;;;;;8.00;94.30;;;;;;5007298;28;1768;-87
2022/11/14 08:50:40;;;;;;;;;;;8.00;94.40;;;;;;5027830;28;1891;-83
2022/11/14 08:53:09;;;;;;;;;;;7.90;94.70;;;;;;5036000;28;1553;-87
2022/11/14 08:55:37;;;;;;;;;;;7.90;95.10;;;;;;5009164;28;1589;-88
2022/11/14 08:58:04;;;;;;;;;;;8.10;94.50;;;;;;5008464;28;1727;-89
2022/11/14 09:00:32;;;;;;;;;;;8.20;94.60;;;;;;5007831;28;1544;-91
2022/11/14 09:09:27;;;;;;;;;;;8.00;95.10;;;;;;5026327;22;1718;-73
2022/11/14 09:11:55;;;;;;;;;;;8.10;95.10;;;;;;5029816;28;1907;-76
2022/11/14 09:14:22;;;;;;;;;;;8.20;95.00;;;;;;5031252;28;1135;-75
2022/11/14 09:16:50;;;;;;;;;;;8.10;94.80;;;;;;5021796;28;1574;-75
2022/11/14 09:19:18;;;;;;;;;;;8.10;94.50;;;;;;5032750;28;1005;-75
2022/11/14 09:21:45;;;;;;;;;;;8.20;94.70;;;;;;5031310;28;1341;-75
2022/11/14 09:24:13;;;;;;;;;;;8.10;94.70;;;;;;5026348;28;1118;-75
2022/11/14 09:26:42;;;;;;;;;;;8.10;94.90;;;;;;5028096;28;1142;-74
2022/11/14 09:29:09;;;;;;;;;;;8.00;94.80;;;;;;5022973;28;1246;-76
2022/11/14 09:31:37;;;;;;;;;;;8.10;95.10;;;;;;5022636;28;1910;-77
2022/11/14 09:34:05;;;;;;;;;;;8.10;94.70;;;;;;5024390;28;1029;-73
2022/11/14 09:36:32;;;;;;;;;;;8.20;94.80;;;;;;5024959;28;1030;-76
2022/11/14 09:39:00;;;;;;;;;;;8.20;94.60;;;;;;5019580;28;1089;-74
2022/11/14 09:41:36;;;;;;;;;;;8.30;94.60;;;;;;5018695;28;1658;-76
2022/11/14 09:44:28;;;;;;;;;;;8.20;94.80;;;;;;5030107;28;1507;-74
2022/11/14 09:46:57;;;;;;;;;;;8.20;94.90;;;;;;5024253;28;1156;-74
2022/11/14 09:49:26;;;;;;;;;;;8.10;94.80;;;;;;5024350;28;1093;-75
2022/11/14 09:51:56;;;;;;;;;;;8.10;95.20;;;;;;5018647;28;1987;-75
2022/11/14 09:54:25;;;;;;;;;;;8.40;94.80;;;;;;5028278;28;989;-76
2022/11/14 09:56:53;;;;;;;;;;;8.30;94.30;;;;;;5026826;28;1048;-76
2022/11/14 09:59:22;;;;;;;;;;;8.40;94.50;;;;;;5026360;28;949;-76
2022/11/14 10:01:55;;;;;;;;;;;8.40;94.50;;;;;;5033337;28;1575;-75
2022/11/14 10:04:28;;;;;;;;;;;8.50;94.40;;;;;;5027167;28;1064;-75
2022/11/14 10:07:01;;;;;;;;;;;8.60;94.20;;;;;;5027987;28;1089;-73
2022/11/14 10:09:47;;;;;;;;;;;8.40;94.40;;;;;;5025429;28;1559;-75
2022/11/14 10:12:21;;;;;;;;;;;8.50;94.40;;;;;;5022234;28;1910;-74
2022/11/14 10:15:05;;;;;;;;;;;8.50;94.20;;;;;;5026255;28;1009;-74
2022/11/14 10:17:42;;;;;;;;;;;8.50;94.10;;;;;;5022550;28;1029;-74
2022/11/14 10:20:17;;;;;;;;;;;8.40;94.10;;;;;;5023671;28;1519;-73
2022/11/14 10:22:54;;;;;;;;;;;8.50;94.20;;;;;;5019805;28;1712;-72
2022/11/14 10:25:30;;;;;;;;;;;8.60;94.10;;;;;;5027658;28;1123;-73
2022/11/14 10:28:03;;;;;;;;;;;8.50;94.10;;;;;;5024352;28;2114;-73
2022/11/14 10:30:38;;;;;;;;;;;8.70;93.90;;;;;;5026213;28;1009;-72
2022/11/14 10:33:13;;;;;;;;;;;8.80;93.90;;;;;;5024592;28;1991;-73
2022/11/14 10:35:43;;;;;;;;;;;8.80;93.80;;;;;;5025354;28;1092;-72
2022/11/14 10:38:13;;;;;;;;;;;8.80;93.70;;;;;;5025702;28;1178;-72
2022/11/14 10:40:42;;;;;;;;;;;8.80;94.00;;;;;;5017337;28;1048;-73
2022/11/14 10:43:22;;;;;;;;;;;8.70;93.70;;;;;;5021325;28;1259;-73
2022/11/14 10:45:53;;;;;;;;;;;8.80;93.50;;;;;;5026460;28;1107;-73
2022/11/14 10:48:28;;;;;;;;;;;8.90;93.50;;;;;;5024401;28;1089;-73
2022/11/14 10:50:57;;;;;;;;;;;8.90;93.40;;;;;;5021648;28;1104;-72
2022/11/14 10:53:29;;;;;;;;;;;9.00;93.20;;;;;;5025770;28;1997;-74
2022/11/14 10:55:57;;;;;;;;;;;9.00;93.10;;;;;;5017377;28;1006;-72
2022/11/14 10:58:31;;;;;;;;;;;9.10;93.00;;;;;;5026674;28;1089;-74
2022/11/14 11:01:33;;;;;;;;;;;9.00;93.50;;;;;;5020932;28;1374;-73
2022/11/14 11:04:13;;;;;;;;;;;9.30;93.20;;;;;;5024817;28;997;-73
2022/11/14 11:06:41;;;;;;;;;;;9.10;93.10;;;;;;5020123;28;1028;-73
2022/11/14 11:11:56;;;;;;;;;;;9.40;92.80;;;;;;5019944;28;2000;-72
2022/11/14 11:14:23;;;;;;;;;;;9.60;92.60;;;;;;5025481;28;1625;-73
2022/11/14 11:17:06;;;;;;;;;;;9.20;92.40;;;;;;5020582;28;1727;-72
2022/11/14 11:19:35;;;;;;;;;;;9.40;92.40;;;;;;5016911;28;1679;-72
2022/11/14 11:22:03;;;;;;;;;;;9.50;92.00;;;;;;5022057;28;1793;-72
2022/11/14 11:24:31;;;;;;;;;;;9.30;92.20;;;;;;5025210;28;1729;-73
2022/11/14 11:27:21;;;;;;;;;;;9.40;92.60;;;;;;5027168;28;1641;-72
2022/11/14 11:30:01;;;;;;;;;;;9.40;92.40;;;;;;5022344;28;1823;-73
2022/11/14 11:32:29;;;;;;;;;;;9.20;92.40;;;;;;5021079;28;1910;-72
2022/11/14 11:34:59;;;;;;;;;;;9.30;92.60;;;;;;5024214;28;1674;-73
2022/11/14 11:37:28;;;;;;;;;;;9.20;92.70;;;;;;5022199;28;1029;-71
2022/11/14 11:40:02;;;;;;;;;;;9.30;92.50;;;;;;5017159;28;946;-72
2022/11/14 11:42:33;;;;;;;;;;;9.30;92.50;;;;;;5023373;28;1251;-73
2022/11/14 11:45:20;;;;;;;;;;;9.40;92.30;;;;;;5022068;28;1726;-73
2022/11/14 11:47:52;;;;;;;;;;;9.40;92.40;;;;;;5018465;28;1097;-73
2022/11/14 11:50:23;;;;;;;;;;;9.30;92.30;;;;;;5018545;28;1096;-71
2022/11/14 11:52:56;;;;;;;;;;;9.40;92.60;;;;;;5025008;28;1949;-71
2022/11/14 11:55:25;;;;;;;;;;;9.30;92.50;;;;;;5024042;28;1018;-70
2022/11/14 11:57:56;;;;;;;;;;;9.20;92.60;;;;;;5015162;28;970;-69
2022/11/14 12:00:24;;;;;;;;;;;9.30;92.70;;;;;;5022943;28;1548;-71
2022/11/14 12:02:52;;;;;;;;;;;9.30;92.70;;;;;;5015990;28;1369;-69
2022/11/14 12:05:25;;;;;;;;;;;9.20;92.70;;;;;;5024888;28;1491;-70
2022/11/14 12:07:57;;;;;;;;;;;9.20;92.60;;;;;;5015332;28;1634;-69
2022/11/14 12:10:26;;;;;;;;;;;9.40;92.50;;;;;;5032484;28;1604;-69
2022/11/14 12:13:01;;;;;;;;;;;9.40;92.50;;;;;;5030087;28;1883;-69
2022/11/14 12:15:31;;;;;;;;;;;9.40;92.60;;;;;;5020479;28;1698;-70
2022/11/14 12:18:18;;;;;;;;;;;9.50;92.70;;;;;;5020403;28;998;-70
2022/11/14 12:20:50;;;;;;;;;;;9.50;92.30;;;;;;5025530;28;1029;-69
2022/11/14 12:23:35;;;;;;;;;;;9.70;92.60;;;;;;5014786;28;1367;-70
2022/11/14 12:26:10;;;;;;;;;;;9.70;92.40;;;;;;5017760;28;1626;-70
2022/11/14 12:28:59;;;;;;;;;;;9.70;92.30;;;;;;5020688;28;1042;-69
2022/11/14 12:31:27;;;;;;;;;;;9.70;92.00;;;;;;5023836;28;1267;-70
2022/11/14 12:33:57;;;;;;;;;;;9.70;92.00;;;;;;5028001;28;1874;-69
2022/11/14 12:36:29;;;;;;;;;;;9.80;92.20;;;;;;5017972;28;1642;-69
2022/11/14 12:38:58;;;;;;;;;;;9.70;92.20;;;;;;5022853;28;1056;-70
2022/11/14 12:41:26;;;;;;;;;;;9.70;92.10;;;;;;5020519;28;1284;-71
2022/11/14 12:44:16;;;;;;;;;;;9.70;92.10;;;;;;5020508;28;1683;-72
2022/11/14 12:47:14;;;;;;;;;;;9.70;91.90;;;;;;5023054;28;1082;-74
2022/11/14 12:50:01;;;;;;;;;;;9.80;92.10;;;;;;4943591;29;1007;-73
2022/11/14 12:52:47;;;;;;;;;;;9.70;92.20;;;;;;5016882;28;1358;-73
2022/11/14 12:55:36;;;;;;;;;;;9.80;92.20;;;;;;5024241;28;1734;-73
2022/11/14 12:58:06;;;;;;;;;;;9.70;92.00;;;;;;4995782;28;1194;-74
2022/11/14 13:00:35;;;;;;;;;;;9.80;92.20;;;;;;5017773;28;1385;-73
2022/11/14 13:03:16;;;;;;;;;;;9.80;92.30;;;;;;5017737;28;1371;-72
2022/11/14 13:05:59;;;;;;;;;;;9.80;92.20;;;;;;5029931;28;1825;-72
2022/11/14 13:09:00;;;;;;;;;;;9.70;92.00;;;;;;5026838;28;1076;-74
2022/11/14 13:23:29;;;;;;;;;;;9.70;92.40;;;;;;5027255;28;1407;-73
2022/11/14 13:26:12;;;;;;;;;;;9.50;92.60;;;;;;5027562;28;1711;-73
2022/11/14 13:28:46;;;;;;;;;;;9.60;92.60;;;;;;5023416;28;1234;-73
2022/11/14 13:31:19;;;;;;;;;;;9.60;92.70;;;;;;5018619;28;1395;-72
2022/11/14 13:33:48;;;;;;;;;;;9.60;92.70;;;;;;5025720;28;1981;-73
2022/11/14 13:36:22;;;;;;;;;;;9.70;92.70;;;;;;5024466;28;990;-69
2022/11/14 13:39:08;;;;;;;;;;;9.70;92.70;;;;;;5022409;28;2102;-73
2022/11/14 13:41:56;;;;;;;;;;;9.70;92.70;;;;;;5024977;28;1749;-72
2022/11/14 13:44:41;;;;;;;;;;;9.60;92.70;;;;;;5026684;28;1761;-73
2022/11/14 13:47:19;;;;;;;;;;;9.60;92.70;;;;;;5025114;28;1719;-72
2022/11/14 13:49:53;;;;;;;;;;;9.70;92.70;;;;;;5026966;28;1065;-72
2022/11/14 13:52:21;;;;;;;;;;;9.70;92.80;;;;;;5027262;28;1648;-73
2022/11/14 13:54:49;;;;;;;;;;;9.70;92.90;;;;;;5027131;28;1910;-72
2022/11/14 13:57:22;;;;;;;;;;;9.70;93.00;;;;;;5026483;28;1683;-71
2022/11/14 13:59:56;;;;;;;;;;;9.60;93.10;;;;;;5027747;28;970;-72
2022/11/14 14:02:36;;;;;;;;;;;9.50;93.10;;;;;;5025619;28;1268;-72
2022/11/14 14:05:10;;;;;;;;;;;9.60;92.90;;;;;;5030652;28;1753;-71
2022/11/14 14:07:44;;;;;;;;;;;9.60;93.10;;;;;;5025673;28;1627;-73
2022/11/14 14:10:20;;;;;;;;;;;9.70;93.20;;;;;;5022773;28;1707;-72
2022/11/14 14:12:54;;;;;;;;;;;9.60;93.40;;;;;;5022338;28;1865;-72
2022/11/14 14:15:26;;;;;;;;;;;9.50;93.10;;;;;;5022844;28;1986;-72
2022/11/14 14:18:00;;;;;;;;;;;9.60;93.10;;;;;;5021579;28;1472;-72
2022/11/14 14:20:34;;;;;;;;;;;9.50;93.10;;;;;;5032385;28;1436;-72
2022/11/14 14:23:08;;;;;;;;;;;9.50;93.10;;;;;;5030682;28;1741;-72
2022/11/14 14:25:41;;;;;;;;;;;9.50;93.10;;;;;;5031269;28;1111;-75
2022/11/14 14:28:11;;;;;;;;;;;9.50;93.20;;;;;;5027474;28;1522;-73
2022/11/14 14:30:40;;;;;;;;;;;9.50;93.30;;;;;;5027474;28;1254;-71
2022/11/14 14:33:12;;;;;;;;;;;9.40;93.20;;;;;;5023626;28;1547;-68
2022/11/14 14:35:48;;;;;;;;;;;9.40;93.30;;;;;;5024904;28;1883;-68
2022/11/14 14:38:22;;;;;;;;;;;9.40;93.30;;;;;;5024593;28;1124;-70
2022/11/14 14:40:50;;;;;;;;;;;9.30;93.30;;;;;;5016912;28;1505;-69
2022/11/14 14:43:23;;;;;;;;;;;9.40;93.70;;;;;;5034156;28;1531;-69
2022/11/14 14:45:53;;;;;;;;;;;9.30;93.70;;;;;;5035090;28;1599;-75
2022/11/14 14:48:23;;;;;;;;;;;9.30;93.70;;;;;;5038758;28;1667;-74
2022/11/14 14:50:51;;;;;;;;;;;9.20;93.70;;;;;;5038100;28;1180;-74
2022/11/14 14:53:20;;;;;;;;;;;9.30;93.80;;;;;;5033595;28;1237;-69
2022/11/14 14:55:51;;;;;;;;;;;9.20;93.70;;;;;;5039949;28;1985;-71
2022/11/14 14:58:24;;;;;;;;;;;9.20;93.80;;;;;;5027756;28;1029;-69
2022/11/14 15:00:55;;;;;;;;;;;9.10;93.90;;;;;;5041161;28;1005;-72
2022/11/14 15:03:23;;;;;;;;;;;9.20;93.90;;;;;;5038772;28;1456;-69
2022/11/14 15:05:57;;;;;;;;;;;9.10;93.90;;;;;;5036947;28;1048;-74
2022/11/14 15:08:25;;;;;;;;;;;9.10;94.10;;;;;;5027893;28;1362;-72
2022/11/14 15:10:54;;;;;;;;;;;9.00;94.40;;;;;;5029216;28;1646;-72
2022/11/14 15:13:22;;;;;;;;;;;8.90;94.40;;;;;;5042470;28;1287;-70
2022/11/14 15:15:50;;;;;;;;;;;9.00;94.40;;;;;;5045454;28;1965;-72
2022/11/14 15:18:23;;;;;;;;;;;8.90;94.60;;;;;;5040769;28;1045;-79
2022/11/14 15:21:07;;;;;;;;;;;8.80;94.70;;;;;;5043923;28;1050;-78
2022/11/14 15:23:36;;;;;;;;;;;8.80;94.60;;;;;;5031229;28;1134;-67
2022/11/14 15:26:05;;;;;;;;;;;8.80;94.90;;;;;;5034492;28;1128;-68
2022/11/14 15:28:33;;;;;;;;;;;8.80;94.90;;;;;;5032945;28;1022;-73